Project: Disk Contents for Microsoft Project 4.0 for Windows |
Q115097
Microsoft Project 4.0 for Windows ships on 3.5-inch high-density (1.4 MB)
disks. However, you can order Microsoft Project on either 5.25-inch high-
density (1.2 MB) or 3.5-inch double-density (720K) disks.
The following is a complete directory list of all files for Microsoft
Project for Windows 4.0 on all three disk sizes. The dates and times for
the compressed files are 4/15/94 10:40a.
Several files listed below do not have a compressed or uncompressed file
sized because they are only used during setup.
Compressed Uncompressed 3.5" 5.25" 3.5"
1.4M 1.2M 720K
File Name Ext Size Ext Size Date Time Disk# Disk# Disk#
--------- --- ---- --- ---- ---- ---- ----- ----- -----
_MSSETUP EX_ 9,147 EXE 14,103 3/25/94 12:00a 1 1 1
ABOUTBOX FR_ 1,966 FRM 7,627 3/25/94 12:00a 6 7 8
ACMSETUP EX_ 106,497 EXE 19,125 3/25/94 12:00a 1 1 1
ACMSETUP HL_ 12,618 HLP 19,125 3/25/94 12:00a 1 1 1
ACMSETUP ST_ 10,731 1 1 1
ADMIN IN_ 3,370 1 1 1
ANALYZER EX_ 8,980 EXE 36,400 3/25/94 12:00a 6 7 8
ANALYZER MA_ 206 MAK 238 3/25/94 12:00a 1 1 1
ANIBUTON VB_ 51,190 VBX 99,888 3/25/94 12:00a 1 1 1
APPEXEC DL_ 4,377 DLL 8,192 3/25/94 12:00a 1 1 1
AUDIT MP_ 6,672 MPT 34,304 4/8/94 12:00a 6 7 8
BACKUP MPT MPT 427,008 4/8/94 12:00a
BATCH EX_ 9,651 EXE 28,407 3/25/94 12:00a 6 7 8
BATCH MA_ 203 MAK 252 3/25/94 12:00a 1 1 3
BTTNCUR DL_ 6,822 DLL 18,128 3/25/94 12:00a 1 2 2
BULLET MR_ 108 MRB 322 3/25/94 12:00a 4 6 8
CBTLIB4 DL_ 10,836 DLL 18,800 3/25/94 12:00a 1 2 2
CHOICE MR_ 189 MRB 760 3/25/94 12:00a 4 7 8
CMDIALOG VB_ 9,011 VBX 18,688 3/25/94 12:00a 1 1 1
COMMTB DL_ 20,987 DLL 40,784 3/25/94 12:00a 1 2 2
COMPLINC DL_ 11,897 DLL 102,400 3/25/94 12:00a 1 1 1
COMPOBJ DL_ 47,475 DLL 102,400 3/25/94 12:00a 2 2 3
CONVERT EX_ 27,477 EXE 51,500 3/25/94 12:00a 6 7 7
CONVERT WR_ 2,552 WRI 6,528 3/25/94 12:00a 3 4 4
CTL3D DL_ 9,725 DLL 1 1 1
CTL3DV2 DL_ 10,323 DLL 21,648 3/25/94 12:00a 1 3 2
CUE LE_ 94,401 LES 202,489 3/25/94 12:00a 1 2 2
CUECARDS DO_ 1,015 DOC 2,911 4/4/94 12:00a 6 7 8
CUEDOT 22,404 DOT 83,456 4/4/94 12:00a 6 7 9
DATA EX_ 4,157 EXE 13,340 3/25/94 12:00a 1 1 1
DATABASE WR_ 3,133 WRI 8,832 4/4/94 12:00a 4 4 6
DECOMP EXE 39,044 EXE 1 1 1
DEF FR_ 6,632 FRM 16,301 3/25/94 12:00a 6 7 8
DEWPROJ EX_ 87,538 EXE 148,000 4/8/94 12:00a 1 2 2
DOIT MR_ 122 MRB 388 3/25/94 12:00a 4 7 8
DOITCUE HL_ 25,326 HLP 80,546 4/4/94 12:00a 6 7 9
EVENTPLN MP_ 8,197 MPT 41,984 4/8/94 12:00a 6 7 8
GIZMOBAR DL_ 6,799 DLL 14,080 3/25/94 12:00a 1 3 3
GLOBAL BA_ 5,341 BAS 10,265 3/25/94 12:00a 1 1 1
GLOBAL BA_ 3,323 BAS 12,413 3/25/94 12:00a 6 7 8
GLOBAL MP_ 88,849 MPT 427,008 4/8/94 12:00a 4 5 6
GREETING FR_ 1,975 FRM 7,588 3/25/94 12:00a 6 7 8
GREYMENU MR_ 228 MRB 1,033 3/25/94 12:00a 5 7 8
GREYNEXT MR_ 234 MRB 1,066 3/25/94 12:00a 6 7 8
GRID VB_ 23,738 VBX 45,136 3/25/94 12:00a 1 1 1
GRIDFUNC BA_ 3,681 BAS 16,345 3/25/94 12:00a 6 7 8
HCP ER_ 2,492 ERR 7,463 3/25/94 12:00a 6 7 8
HCP EX_ 106,523 EXE 236,288 3/25/94 12:00a 6 8 10
HCP PI_ 173 PIF 545 3/25/94 12:00a 6 7 8
INFLATE XL_ 60,447 XLM 160,768 3/25/94 12:00a 6 7 10
LANINST HL_ 7,882 HLP 22,955 3/25/94 12:00a 6 7 8
LANINST MP_ 6,721 MPT 37,888 4/8/94 12:00a 6 7 8
LANSUB MP_ 6,407 MPT 36,864 4/8/94 12:00a 6 7 8
MAIN BA_ 7,945 BAS 28,525 3/25/94 12:00a 6 7 8
MAIN FR_ 10,099 FRM 23,979 3/25/94 12:00a 6 7 8
MAPIVIM DL_ 30,671 DLL 55,744 3/25/94 12:00a 5 5 5
MENU MR_ 208 MRB 1,099 3/25/94 12:00a 6 7 8
MKTPLAN MP_ 8,021 MPT 41,472 4/8/94 12:00a 6 7 8
MORE FR_ 2,176 FRM 3,913 3/25/94 12:00a 6 7 8
MOST FR_ 2,907 FRM 5,790 3/25/94 12:00a 6 7 8
MPXFILE WR_ 12,459 WRI 47,616 4/10/94 12:00a 5 6 6
MSAJT200 DL_ 500,727 DLL 994,496 4/6/94 12:00a 4 5 13
MSCPYDIS DL_ 8,805 DLL 14,832 3/25/94 12:00a 1 1 1
MSFFILE DL_ 99,015 DLL 177,840 3/25/94 12:00a 2 3 3
MSINFO EX_ 16,713 EXE 40,960 3/25/94 12:00a 3 3 5
MSMAPI VB_ 18,001 VBX 37,712 3/25/94 12:00a 1 1 1
MSOUTLIN VB_ 12,770 VBX 24,000 3/25/94 12:00a 1 1 2
MSP40OLE DL_ 69,881 DLL 200,224 4/8/94 12:00a 2 3 4
MSSETUP DL_ 91,812 DLL 191,360 3/25/94 12:00a 1 1 1
MSSP_AM LE_ 148,754 LEX 176,839 3/25/94 12:00a 5 6 6
MSSP_BR LE_ 148,627 LEX 176,298 3/25/94 12:00a 6 6 7
MSSPELL DL_ 41,455 DLL 86,016 3/25/94 12:00a 3 5 5
MSTOOLBR DL_ 5,543 DLL 9,232 3/25/94 12:00a 2 3 3
NEXT MR_ 229 MRB 1,270 3/25/94 12:00a 6 7 10
OLE2 DL_ 144,252 DLL 313,344 3/25/94 12:00a 2 3 4
OLE2CONV DL_ 29,914 DLL 57,328 3/25/94 12:00a 2 3 3
OLE2DISP DL_ 41,210 DLL 90,144 3/25/94 12:00a 2 3 4
OLE2NLS DL_ 24,429 DLL 99,200 3/25/94 12:00a 2 3 4
OLE2PROX DL_ 17,642 DLL 55,808 3/25/94 12:00a 2 3 3
OPENMAIL EX_ 20,928 EXE 50,738 4/8/94 12:00a 1 1 1
OPTIONS FR_ 238 FRX 770 3/25/94 12:00a 1 1 1
OPTIONS FR_ 1,798 FRM 8,702 3/25/94 12:00a 6 7 8
PERT MP_ 20,720 MPP 76,800 4/8/94 12:00a 6 7 8
PJREADME HLP 22,273 HLP 22,273 4/8/94 12:00a 1 1 1
PJSETUP TT_ 52,390 TTF 79,720 3/25/94 12:00a 1 1 1
PLAY EX_ 55,957 EXE 108,912 3/25/94 12:00a 5 5 7
PLOTTERS WR_ 5,181 WRI 13,184 3/31/94 12:00a 4 7 7
PROJ_BB DL_ 50,153 DLL 312,784 3/25/94 12:00a 1 1 1
PROJ2ACC DL_ 76,283 DLL 157,440 4/6/94 12:00a 4 5 6
PROJEN40 OL_ 53,663 OLB 109,472 4/8/94 12:00a 6 7 7
PROJHELP DL_ 3,524 DLL 5,200 4/10/94 12:00a 1 2 4
PROJLIST FR_ 1,896 FRM 3,283 3/25/94 12:00a 6 7 8
PROJPSS HL_ 23,962 HLP 34,097 3/30/94 12:00a 6 6 5
PUBLIC BA_ 7,701 BAS 17,586 3/25/94 12:00a 6 7 8
QP LE_ 114,580 LES 250,140 3/25/94 12:00a 6 7 8
RESLIST BA_ 2,915 BAS 10,951 3/25/94 12:00a 6 7 8
ROLLOUT MP_ 9,952 MPT 54,784 4/8/94 12:00a 6 7 8
ROLLUP MP_ 3,830 MPT 23,040 4/8/94 12:00a 6 5 7
SAMPLES WR_ 15,337 WRI 48,640 4/8/94 12:00a 6 7 7
SCHEDULE BA_ 4,308 BAS 18,536 3/25/94 12:00a 6 7 8
SCP DL_ 4,637 DLL 9,904 3/25/94 12:00a 2 3 4
SDM DL_ 57,337 DLL 102,032 3/25/94 12:00a 3 3 5
SETUP EXE 39,856 EXE 255,776 3/25/94 12:00a 1 1 1
SETUP INI 149 INI 149 4/18/94 1:25p 1 1 1
SETUP LST LST 604 4/15/94 10:40a 1 1 1
SETUP STF STF 55,470 4/18/94 1:28p
SETUP WRI 21,504 WRI 21,504 4/10/94 12:00a 1 1 1
SOFTDEV HL_ 13,996 HLP 48,694 3/25/94 12:00a 6 7 8
SOFTDEV MP_ 11,058 MPT 71,168 4/8/94 12:00a 6 7 8
SPLASH FR_ 467 FRX 1,090 3/25/94 12:00a 1 1 1
SPLASH FR_ 732 FRM 2,782 3/25/94 12:00a 3 7 6
SPLUS DL_ 38,663 DLL 82,832 3/25/94 12:00a 1 1 2
STARTDOT 2,694 DOT 17,920 4/4/94 12:00a 6 7 10
STARTUP DO_ 1,373 DOC 7,168 4/4/94 12:00a 6 7 10
STDOLE TL_ 1,878 TLB 4,322 3/25/94 12:00a 2 3 3
STORAGE DL_ 69,008 DLL 157,184 3/25/94 12:00a 3 4 5
STRINGS BA_ 1,853 BAS 3,768 3/25/94 12:00a 4 7 5
TASKINFO FR_ 257 FRX 2,884 3/25/94 12:00a 1 1 1
TASKINFO FR_ 3,810 FRM 17,118 3/25/94 12:00a 6 7 8
TEMPLATE WR_ 2,057 WRI 5,376 3/28/94 12:00a 4 4 7
THREED VB_ 26,797 VBX 64,544 3/25/94 12:00a 1 1 1
TIMETRAK EX_ 19,051 EXE 47,418 3/25/94 12:00a 6 7 7
TIMETRAK IC_ 236 ICO 766 3/25/94 12:00a 3 3 7
TIMETRAK MA_ 227 MAK 283 3/25/94 12:00a 1 3 4
TMPLTWIZ EX_ 28,628 EXE 97,867 3/25/94 12:00a 6 7 8
TMPLTWIZ WR_ 4,312 WRI 12,416 3/25/94 12:00a 6 6 7
TYPELIB DL_ 72,842 DLL 142,592 3/25/94 12:00a 3 4 5
VBA DL_ 415,160 DLL 820,064 3/25/94 12:00a 3 4 12
VBA_PJ H1_ 517,113 HLP 3
VBA_PJ H2_ 423,731 HLP 4
VBA_PJ HL_ 940,693 HLP 1,442,882 3/25/94 12:00a 2 2
VBA_PJ WR_ 847 WRI 2,048 4/7/94 12:00a 1 1 1
VBAEN DL_ 6,814 DLL 9,360 3/25/94 12:00a 2 3 4
VBAEN OL_ 17,002 OLB 31,060 3/25/94 12:00a 2 3 5
VBAMAPI DL_ 3,258 DLL 6,320 3/25/94 12:00a 2 3 4
VBOA300 DL_ 6,797 DLL 13,824 3/25/94 12:00a 1 1 1
VBRUN300 DL_ 229,776 DLL 398,416 3/25/94 12:00a 1 1 2
VER DL_ 5,737 DLL 9,696 3/25/94 12:00a 3 3 5
VSHARE 38_ 7,241 386 14,933 3/25/94 12:00a 4 4 5
WGSETUP EXE EXE 39,856 4/15/94 10:40a 1 1 1
WGSETUP IN_ 481 4/15/94 10:40a 1 1 1
WGSETUP LST 546 LST 4/15/94 10:40a 1 1 1
WGSETUP ST_ 2,321 STF 4/15/94 10:40a 1 1 1
WINPROJ DL_ 211,970 DLG 1,116,624 4/12/94 12:00a 1 1 2
WINPROJ E1_ 380,478 5
WINPROJ E1_ 773,662 EXE 3,217,920 4/12/94 12:00a 3 3
WINPROJ E2_ 768,078 4 4
WINPROJ E2_ 395,469 6
WINPROJ E3_ 387,525 7
WINPROJ E3_ 159,020 5 5
WINPROJ E4_ 382,397 8
WINPROJ E5_ 156,624 9
WINPROJ H1_ 1,049,066 HLP 2,581,007 4/7/94 12:00a 5 6
WINPROJ H1_ 524,683 HLP 9
WINPROJ H2_ 507,959 6 7
WINPROJ H2_ 526,937 10
WINPROJ H3_ 63,426 8
WINPROJ H3_ 364,730 11
WINPROJ H4_ 149,794 12
WINPROJ4 IN_ 3,502 INF 14,320 4/12/94 12:00a 1 1 1
WINPROJ4 RE_ 669 REG 3,573 4/4/94 12:00a 6 7 10
The following is a list of the disk labels and total size of each
disk for the product mentioned above.
3.5"(HD)1.4 MB 5.25"(HD)1.2 MB 3.5"(DD)720K
Disk Label Files Total Bytes Files Total Bytes Files Total Bytes
----------- -------------------- -------------------- -------------------
WPROJ4SETUP 51 1,444,472 42 1,202,411 37 709,785
WPROJ4DISK2 15 1,453,643 8 1,212,276 10 714,086
WPROJ4DISK3 11 1,455,434 21 1,207,996 9 725,582
WPROJ4DISK4 12 1,453,821 8 1,211,835 11 724,515
WPROJ4DISK5 7 1,456,155 8 1,212,589 12 724,299
WPROJ4DISK6 51 1,352,602 7 1,212,063 7 725,679
WPROJ4DISK7 52 1,186,463 12 723,253
WPROJ4DISK8 2 169,949 39 711,763
WPROJ4DISK9 4 729,037
WPROJ4DISK10 7 698,872
WPROJ4DISK11 1 364,730
WPROJ4DISK12 2 564,954
WPROJ4DISK13 1 500,727
Additional query words: projdir
Keywords :
Issue type : kbinfo
Technology :
|
Last Reviewed: November 3, 2000 © 2001 Microsoft Corporation. All rights reserved. Terms of Use. |